createdAt,value
2022-10-12T00:00:02.601Z,102073.06
2022-10-12T00:02:40.878Z,102067.47
2022-10-12T00:05:08.980Z,102074.03
2022-10-12T00:07:36.669Z,102068.69
2022-10-12T00:10:06.257Z,102072.31
2022-10-12T00:12:34.349Z,102074.03
2022-10-12T00:15:01.736Z,102075.09
2022-10-12T00:17:29.112Z,102079.38
2022-10-12T00:19:56.489Z,102074.25
2022-10-12T00:22:23.872Z,102072.31
2022-10-12T00:24:51.248Z,102075.97
2022-10-12T00:27:19.943Z,102073.41
2022-10-12T00:29:47.332Z,102077.66
2022-10-12T00:32:15.187Z,102075.09
2022-10-12T00:34:42.595Z,102070.63
2022-10-12T00:37:09.972Z,102070.84
2022-10-12T00:39:37.421Z,102076.06
2022-10-12T00:42:05.086Z,102077.91
2022-10-12T00:44:39.165Z,102077.66
2022-10-12T00:47:09.283Z,102073.19
2022-10-12T00:49:36.688Z,102077.66
2022-10-12T00:52:06.038Z,102083.25
2022-10-12T00:54:35.143Z,102077.03
2022-10-12T00:57:03.290Z,102082.59
2022-10-12T00:59:32.523Z,102083.59
2022-10-12T01:02:01.178Z,102084.31
2022-10-12T01:04:28.581Z,102089.66
2022-10-12T01:06:55.970Z,102083.59
2022-10-12T01:09:23.597Z,102089.53
2022-10-12T01:11:51.002Z,102092.09
2022-10-12T01:14:18.416Z,102088.81
2022-10-12T01:16:47.719Z,102093.16
2022-10-12T01:19:25.300Z,102090.63
2022-10-12T01:21:54.468Z,102083.69
2022-10-12T01:24:34.462Z,102088.94
2022-10-12T01:27:04.396Z,102095.00
2022-10-12T01:29:40.063Z,102089.66
2022-10-12T01:32:10.241Z,102088.59
2022-10-12T01:34:41.975Z,102086.03
2022-10-12T01:37:11.989Z,102086.03
2022-10-12T01:39:41.056Z,102087.84
2022-10-12T01:42:09.790Z,102086.75
2022-10-12T01:44:42.022Z,102093.16
2022-10-12T01:47:11.540Z,102094.16
2022-10-12T01:49:38.920Z,102094.16
2022-10-12T01:52:14.091Z,102092.31
2022-10-12T01:54:57.840Z,102090.28
2022-10-12T01:57:29.650Z,102088.34
2022-10-12T02:00:02.489Z,102093.94
2022-10-12T02:02:36.338Z,102089.44
2022-10-12T02:05:05.250Z,102086.75
2022-10-12T02:07:44.777Z,102092.22
2022-10-12T02:10:13.781Z,102087.72
2022-10-12T02:12:41.345Z,102086.75
2022-10-12T02:15:09.219Z,102080.44
2022-10-12T02:17:38.242Z,102078.03
2022-10-12T02:20:06.660Z,102082.50
2022-10-12T02:22:35.761Z,102080.91
2022-10-12T02:25:04.486Z,102077.41
2022-10-12T02:27:31.876Z,102082.50
2022-10-12T02:29:59.249Z,102076.41
2022-10-12T02:32:29.445Z,102071.19
2022-10-12T02:34:59.384Z,102072.69
2022-10-12T02:37:31.244Z,102074.47
2022-10-12T02:40:01.630Z,102077.16
2022-10-12T02:42:41.794Z,102074.75
2022-10-12T02:45:18.117Z,102072.41
2022-10-12T02:47:45.829Z,102068.53
2022-10-12T02:50:14.496Z,102068.75
2022-10-12T02:52:41.876Z,102062.44
2022-10-12T02:55:09.395Z,102060.88
2022-10-12T02:57:37.076Z,102058.22
2022-10-12T03:00:05.162Z,102055.53
2022-10-12T03:02:32.556Z,102064.38
2022-10-12T03:04:59.959Z,102056.50
2022-10-12T03:07:28.614Z,102066.22
2022-10-12T03:09:56.006Z,102066.34
2022-10-12T03:12:23.402Z,102067.41
2022-10-12T03:14:50.775Z,102070.78
2022-10-12T03:17:18.165Z,102061.84
2022-10-12T03:19:45.550Z,102063.66
2022-10-12T03:22:12.934Z,102059.16
2022-10-12T03:24:41.612Z,102060.88
2022-10-12T03:27:08.994Z,102050.66
2022-10-12T03:29:36.365Z,102054.16
2022-10-12T03:32:03.746Z,102059.38
2022-10-12T03:34:31.122Z,102056.72
2022-10-12T03:36:58.502Z,102063.03
2022-10-12T03:41:54.391Z,102055.03
2022-10-12T03:44:21.772Z,102048.94
2022-10-12T03:46:49.147Z,102053.31
2022-10-12T03:49:16.535Z,102051.50
2022-10-12T03:51:43.922Z,102046.25
2022-10-12T03:54:11.334Z,102046.16
2022-10-12T03:56:38.699Z,102048.94
2022-10-12T03:59:07.368Z,102045.09
2022-10-12T04:01:34.825Z,102045.09
2022-10-12T04:04:02.272Z,102045.81
2022-10-12T04:06:29.653Z,102050.19
2022-10-12T04:08:57.045Z,102055.53
2022-10-12T04:11:24.452Z,102054.78
2022-10-12T04:13:51.835Z,102055.66
2022-10-12T04:16:20.628Z,102062.69
2022-10-12T04:18:48.022Z,102056.50
2022-10-12T04:21:16.034Z,102058.31
2022-10-12T04:23:43.586Z,102063.78
2022-10-12T04:26:11.122Z,102061.00
2022-10-12T04:28:38.574Z,102064.50
2022-10-12T04:31:06.010Z,102061.00
2022-10-12T04:33:34.730Z,102068.00
2022-10-12T04:36:02.105Z,102057.22
2022-10-12T04:38:29.502Z,102063.41
2022-10-12T04:40:57.656Z,102061.00
2022-10-12T04:43:25.043Z,102060.00
2022-10-12T04:45:56.243Z,102066.34
2022-10-12T04:48:23.661Z,102063.56
2022-10-12T04:50:52.392Z,102069.84
2022-10-12T04:53:19.886Z,102069.63
2022-10-12T04:55:47.296Z,102071.66
2022-10-12T04:58:14.685Z,102074.34
2022-10-12T05:00:42.072Z,102082.47
2022-10-12T05:03:09.458Z,102077.84
2022-10-12T05:05:36.849Z,102078.81
2022-10-12T05:08:05.676Z,102081.38
2022-10-12T05:10:33.061Z,102076.41
2022-10-12T05:13:00.449Z,102079.78
2022-10-12T05:17:55.438Z,102082.47
2022-10-12T05:20:22.817Z,102078.06
2022-10-12T05:22:50.190Z,102077.13
2022-10-12T05:25:19.343Z,102077.34
2022-10-12T05:27:46.714Z,102082.69
2022-10-12T05:30:14.177Z,102081.72
2022-10-12T05:35:10.033Z,102084.41
2022-10-12T05:37:37.712Z,102087.19
2022-10-12T05:40:05.992Z,102080.97
2022-10-12T05:42:35.778Z,102083.63
2022-10-12T05:45:03.367Z,102083.78
2022-10-12T05:47:30.851Z,102085.47
2022-10-12T05:49:58.253Z,102082.06
2022-10-12T05:52:25.653Z,102085.59
2022-10-12T05:54:53.028Z,102082.06
2022-10-12T05:57:20.421Z,102082.06
2022-10-12T05:59:49.088Z,102083.53
2022-10-12T06:02:17.188Z,102081.84
2022-10-12T06:04:44.695Z,102079.19
2022-10-12T06:09:39.715Z,102078.81
2022-10-12T06:12:07.375Z,102081.47
2022-10-12T06:14:34.825Z,102080.75
2022-10-12T06:17:03.483Z,102084.03
2022-10-12T06:19:30.875Z,102085.63
2022-10-12T06:21:58.485Z,102091.94
2022-10-12T06:24:25.877Z,102093.66
2022-10-12T06:26:53.322Z,102093.88
2022-10-12T06:29:23.198Z,102103.59
2022-10-12T06:31:51.829Z,102096.53
2022-10-12T06:34:20.693Z,102103.34
2022-10-12T06:36:48.064Z,102109.44
2022-10-12T06:39:15.443Z,102100.56
2022-10-12T06:41:42.844Z,102112.22
2022-10-12T06:44:10.245Z,102099.72
2022-10-12T06:46:37.623Z,102103.22
2022-10-12T06:49:05.016Z,102099.00
2022-10-12T06:51:33.769Z,102107.13
2022-10-12T06:54:01.224Z,102104.44
2022-10-12T06:56:28.679Z,102109.91
2022-10-12T06:58:56.418Z,102110.84
2022-10-12T07:01:24.016Z,102112.78
2022-10-12T07:03:51.504Z,102116.19
2022-10-12T07:06:19.076Z,102111.72
2022-10-12T07:08:48.996Z,102101.88
2022-10-12T07:11:16.551Z,102108.94
2022-10-12T07:13:43.952Z,102109.78
2022-10-12T07:16:11.369Z,102121.19
2022-10-12T07:18:40.047Z,102121.31
2022-10-12T07:21:07.502Z,102109.78
2022-10-12T07:23:35.248Z,102114.28
2022-10-12T07:26:03.954Z,102116.94
2022-10-12T07:28:31.479Z,102121.03
2022-10-12T07:31:03.081Z,102113.25
2022-10-12T07:33:34.012Z,102119.44
2022-10-12T07:38:49.190Z,102115.94
2022-10-12T07:41:17.984Z,102117.72
2022-10-12T07:43:45.360Z,102116.78
2022-10-12T07:46:12.934Z,102119.44
2022-10-12T07:48:45.674Z,102119.22
2022-10-12T07:51:16.583Z,102111.44
2022-10-12T07:53:44.232Z,102115.16
2022-10-12T07:56:15.174Z,102119.66
2022-10-12T07:58:44.131Z,102122.34
2022-10-12T08:01:11.528Z,102119.56
2022-10-12T08:03:39.019Z,102116.66
2022-10-12T08:06:10.573Z,102114.09
2022-10-12T08:08:37.964Z,102112.16
2022-10-12T08:13:33.033Z,102107.66
2022-10-12T08:16:01.790Z,102107.44
2022-10-12T08:18:29.267Z,102114.91
2022-10-12T08:20:56.704Z,102110.84
2022-10-12T08:23:24.364Z,102104.03
2022-10-12T08:25:55.276Z,102105.25
2022-10-12T08:28:22.719Z,102109.38
2022-10-12T08:30:50.835Z,102114.09
2022-10-12T08:33:19.724Z,102111.44
2022-10-12T08:35:47.632Z,102113.25
2022-10-12T08:38:15.348Z,102115.22
2022-10-12T08:40:44.782Z,102115.47
2022-10-12T08:43:14.852Z,102106.50
2022-10-12T08:45:44.771Z,102106.50
2022-10-12T08:48:14.335Z,102105.88
2022-10-12T08:50:45.298Z,102110.34
2022-10-12T08:53:15.857Z,102109.59
2022-10-12T08:55:44.215Z,102099.81
2022-10-12T08:58:15.863Z,102108.53
2022-10-12T09:00:43.373Z,102105.00
2022-10-12T09:03:15.642Z,102097.75
2022-10-12T09:05:45.275Z,102102.09
2022-10-12T09:10:46.922Z,102097.50
2022-10-12T09:13:34.959Z,102090.25
2022-10-12T09:16:03.619Z,102092.78
2022-10-12T09:18:39.626Z,102095.69
2022-10-12T09:21:11.448Z,102095.59
2022-10-12T09:23:39.684Z,102092.66
2022-10-12T09:26:12.406Z,102090.00
2022-10-12T09:28:41.332Z,102093.44
2022-10-12T09:31:17.788Z,102094.28
2022-10-12T09:33:46.232Z,102090.28
2022-10-12T09:36:17.035Z,102090.66
2022-10-12T09:38:44.408Z,102088.84
2022-10-12T09:41:15.579Z,102086.28
2022-10-12T09:43:42.956Z,102087.66
2022-10-12T09:46:11.474Z,102080.38
2022-10-12T09:48:38.892Z,102087.94
2022-10-12T09:51:06.399Z,102072.78
2022-10-12T09:53:36.105Z,102079.97
2022-10-12T09:56:06.078Z,102075.47
2022-10-12T09:58:38.480Z,102082.28
2022-10-12T10:01:18.923Z,102075.84
2022-10-12T10:03:47.176Z,102078.19
2022-10-12T10:06:15.810Z,102075.50
2022-10-12T10:08:45.270Z,102079.75
2022-10-12T10:11:16.681Z,102081.34
2022-10-12T10:13:51.992Z,102076.97
2022-10-12T10:16:21.410Z,102075.13
2022-10-12T10:18:49.391Z,102075.13
2022-10-12T10:21:17.998Z,102071.97
2022-10-12T10:23:51.647Z,102069.53
2022-10-12T10:26:20.477Z,102069.78
2022-10-12T10:28:48.306Z,102069.03
2022-10-12T10:31:21.852Z,102070.03
2022-10-12T10:34:04.838Z,102065.63
2022-10-12T10:36:32.320Z,102065.63
2022-10-12T10:39:04.723Z,102067.69
2022-10-12T10:41:33.099Z,102066.13
2022-10-12T10:44:00.508Z,102057.72
2022-10-12T10:46:29.164Z,102060.03
2022-10-12T10:48:58.818Z,102054.22
2022-10-12T10:51:40.423Z,102057.97
2022-10-12T10:54:15.901Z,102049.09
2022-10-12T10:56:43.385Z,102052.94
2022-10-12T10:59:16.100Z,102055.59
2022-10-12T11:01:46.896Z,102057.66
2022-10-12T11:04:15.452Z,102048.09
2022-10-12T11:06:43.762Z,102045.41
2022-10-12T11:09:15.673Z,102038.47
2022-10-12T11:11:43.113Z,102046.84
2022-10-12T11:14:15.024Z,102043.31
2022-10-12T11:16:43.300Z,102032.38
2022-10-12T11:19:19.048Z,102041.59
2022-10-12T11:21:48.199Z,102041.34
2022-10-12T11:24:18.290Z,102024.22
2022-10-12T11:26:47.285Z,102022.78
2022-10-12T11:29:14.829Z,102026.19
2022-10-12T11:31:44.338Z,102022.56
2022-10-12T11:34:14.718Z,102006.41
2022-10-12T11:36:55.796Z,102012.47
2022-10-12T11:39:34.025Z,102002.66
2022-10-12T11:42:21.885Z,101996.22
2022-10-12T11:44:49.439Z,101996.69
2022-10-12T11:47:18.758Z,101988.56
2022-10-12T11:49:50.361Z,101992.81
2022-10-12T11:52:17.820Z,101992.44
2022-10-12T11:54:49.079Z,101998.53
2022-10-12T11:57:18.467Z,101992.44
2022-10-12T11:59:47.505Z,101989.41
2022-10-12T12:02:17.890Z,101987.47
2022-10-12T12:04:45.603Z,101976.78
2022-10-12T12:07:42.524Z,101978.59
2022-10-12T12:10:50.492Z,101974.88
2022-10-12T12:13:22.690Z,101965.84
2022-10-12T12:16:30.509Z,101969.41
2022-10-12T12:19:41.690Z,101966.72
2022-10-12T12:22:19.853Z,101959.56
2022-10-12T12:25:04.114Z,101950.72
2022-10-12T12:27:37.495Z,101957.72
2022-10-12T12:30:07.112Z,101947.16
2022-10-12T12:32:42.672Z,101952.38
2022-10-12T12:35:24.935Z,101945.47
2022-10-12T12:38:01.923Z,101946.31
2022-10-12T12:40:29.376Z,101949.00
2022-10-12T12:43:15.245Z,101941.94
2022-10-12T12:45:54.740Z,101943.66
2022-10-12T12:48:55.766Z,101936.59
2022-10-12T12:51:24.173Z,101941.09
2022-10-12T12:53:52.150Z,101947.28
2022-10-12T12:56:21.463Z,101940.25
2022-10-12T12:59:05.103Z,101936.59
2022-10-12T13:01:49.056Z,101941.94
2022-10-12T13:04:25.096Z,101941.94
2022-10-12T13:07:06.956Z,101939.53
2022-10-12T13:09:42.356Z,101938.53
2022-10-12T13:12:19.783Z,101934.91
2022-10-12T13:14:54.679Z,101931.25
2022-10-12T13:17:34.893Z,101926.91
2022-10-12T13:20:02.589Z,101926.91
2022-10-12T13:22:32.201Z,101918.88
2022-10-12T13:25:00.364Z,101919.72
2022-10-12T13:27:30.724Z,101924.22
2022-10-12T13:29:59.355Z,101921.44
2022-10-12T13:32:33.987Z,101921.44
2022-10-12T13:35:06.226Z,101915.97
2022-10-12T13:37:34.815Z,101917.66
2022-10-12T13:40:02.565Z,101922.06
2022-10-12T13:42:32.517Z,101908.81
2022-10-12T13:44:59.892Z,101908.81
2022-10-12T13:47:28.045Z,101908.69
2022-10-12T13:49:56.791Z,101901.63
2022-10-12T13:52:30.958Z,101906.88
2022-10-12T13:54:59.461Z,101902.38
2022-10-12T13:57:29.448Z,101907.69
2022-10-12T13:59:58.555Z,101906.75
2022-10-12T14:02:27.400Z,101897.03
2022-10-12T14:04:56.576Z,101895.22
2022-10-12T14:07:25.604Z,101896.19
2022-10-12T14:09:55.251Z,101894.34
2022-10-12T14:12:25.466Z,101882.00
2022-10-12T14:14:53.143Z,101889.13
2022-10-12T14:17:20.697Z,101887.22
2022-10-12T14:19:49.655Z,101883.53
2022-10-12T14:22:22.172Z,101879.31
2022-10-12T14:24:49.608Z,101884.41
2022-10-12T14:27:23.048Z,101879.44
2022-10-12T14:29:56.990Z,101877.84
2022-10-12T14:32:42.064Z,101871.78
2022-10-12T14:35:23.558Z,101873.00
2022-10-12T14:37:53.063Z,101863.28
2022-10-12T14:40:35.173Z,101867.06
2022-10-12T14:43:04.703Z,101858.28
2022-10-12T14:45:32.374Z,101866.47
2022-10-12T14:48:00.024Z,101855.78
2022-10-12T14:50:27.625Z,101858.56
2022-10-12T14:52:57.122Z,101860.63
2022-10-12T14:55:25.889Z,101860.47
2022-10-12T14:57:53.476Z,101861.59
2022-10-12T15:00:21.788Z,101859.03
2022-10-12T15:02:49.234Z,101845.56
2022-10-12T15:05:18.155Z,101851.88
2022-10-12T15:07:46.828Z,101844.72
2022-10-12T15:10:15.669Z,101848.22
2022-10-12T15:12:43.654Z,101843.84
2022-10-12T15:15:19.479Z,101843.84
2022-10-12T15:17:46.892Z,101833.16
2022-10-12T15:20:14.382Z,101840.34
2022-10-12T15:22:41.768Z,101838.78
2022-10-12T15:25:14.937Z,101835.25
2022-10-12T15:27:43.661Z,101829.06
2022-10-12T15:30:12.464Z,101829.06
2022-10-12T15:32:39.886Z,101825.56
2022-10-12T15:35:15.524Z,101832.44
2022-10-12T15:37:42.916Z,101821.06
2022-10-12T15:40:11.878Z,101826.50
2022-10-12T15:42:39.371Z,101828.22
2022-10-12T15:45:15.318Z,101828.22
2022-10-12T15:47:42.721Z,101828.22
2022-10-12T15:50:10.172Z,101826.50
2022-10-12T15:52:37.590Z,101817.53
2022-10-12T15:55:06.875Z,101823.84
2022-10-12T15:57:34.288Z,101820.44
2022-10-12T16:00:01.660Z,101813.28
2022-10-12T16:02:30.402Z,101821.28
2022-10-12T16:04:57.813Z,101823.13
2022-10-12T16:07:25.290Z,101824.94
2022-10-12T16:09:52.663Z,101813.50
2022-10-12T16:12:20.050Z,101811.59
2022-10-12T16:14:47.525Z,101806.38
2022-10-12T16:17:15.245Z,101814.28
2022-10-12T16:19:44.230Z,101810.59
2022-10-12T16:22:11.791Z,101814.16
2022-10-12T16:24:39.211Z,101814.28
2022-10-12T16:27:06.633Z,101815.09
2022-10-12T16:29:34.101Z,101809.66
2022-10-12T16:32:01.864Z,101810.84
2022-10-12T16:34:30.758Z,101811.34
2022-10-12T16:37:00.213Z,101808.66
2022-10-12T16:39:27.967Z,101809.41
2022-10-12T16:41:55.347Z,101812.69
2022-10-12T16:44:22.746Z,101814.47
2022-10-12T16:46:50.239Z,101816.31
2022-10-12T16:49:17.625Z,101812.69
2022-10-12T16:51:45.017Z,101816.19
2022-10-12T16:54:13.664Z,101817.03
2022-10-12T16:56:41.057Z,101811.81
2022-10-12T16:59:08.495Z,101813.66
2022-10-12T17:01:35.898Z,101806.47
2022-10-12T17:06:30.641Z,101811.22
2022-10-12T17:08:58.498Z,101812.09
2022-10-12T17:11:27.160Z,101813.75
2022-10-12T17:13:55.739Z,101806.00
2022-10-12T17:16:40.968Z,101811.34
2022-10-12T17:19:08.483Z,101808.66
2022-10-12T17:21:37.650Z,101807.94
2022-10-12T17:24:05.404Z,101805.16
2022-10-12T17:26:38.596Z,101806.13
2022-10-12T17:29:09.276Z,101805.28
2022-10-12T17:31:36.654Z,101810.59
2022-10-12T17:34:04.061Z,101814.00
2022-10-12T17:36:31.448Z,101806.97
2022-10-12T17:38:59.045Z,101807.09
2022-10-12T17:41:26.507Z,101814.28
2022-10-12T17:43:55.217Z,101807.94
2022-10-12T17:46:23.005Z,101801.75
2022-10-12T17:48:50.484Z,101802.47
2022-10-12T17:51:18.201Z,101794.59
2022-10-12T17:53:45.575Z,101798.97
2022-10-12T17:56:13.644Z,101796.53
2022-10-12T17:58:41.036Z,101798.25
2022-10-12T18:01:10.777Z,101796.53
2022-10-12T18:03:39.660Z,101797.25
2022-10-12T18:06:07.600Z,101797.38
2022-10-12T18:08:35.026Z,101800.06
2022-10-12T18:11:02.603Z,101803.59
2022-10-12T18:13:30.101Z,101793.16
2022-10-12T18:15:57.969Z,101798.38
2022-10-12T18:18:26.628Z,101791.44
2022-10-12T18:20:54.115Z,101796.78
2022-10-12T18:23:21.496Z,101786.97
2022-10-12T18:25:50.722Z,101790.47
2022-10-12T18:28:18.149Z,101786.09
2022-10-12T18:30:49.434Z,101777.25
2022-10-12T18:33:17.280Z,101779.91
2022-10-12T18:35:45.944Z,101779.06
2022-10-12T18:38:13.308Z,101772.75
2022-10-12T18:40:42.425Z,101779.91
2022-10-12T18:43:09.995Z,101779.06
2022-10-12T18:49:51.698Z,101775.41
2022-10-12T18:53:29.278Z,101772.16
2022-10-12T18:56:55.094Z,101771.31
2022-10-12T19:00:07.417Z,101766.94
2022-10-12T19:03:06.957Z,101773.97
2022-10-12T19:06:24.337Z,101772.03
2022-10-12T19:16:20.967Z,101760.88
2022-10-12T19:19:44.432Z,101762.59
2022-10-12T19:22:57.255Z,101749.22
2022-10-12T19:26:10.956Z,101751.91
2022-10-12T19:29:18.543Z,101755.53
2022-10-12T19:32:02.081Z,101757.38
2022-10-12T19:34:44.755Z,101752.13
2022-10-12T19:37:44.296Z,101752.88
2022-10-12T19:40:44.262Z,101755.53
2022-10-12T19:43:54.712Z,101746.94
2022-10-12T19:47:17.583Z,101745.22
2022-10-12T19:50:19.755Z,101743.28
2022-10-12T19:53:28.836Z,101746.94
2022-10-12T19:56:26.437Z,101740.63
2022-10-12T19:59:08.525Z,101735.41
2022-10-12T20:02:18.109Z,101734.66
2022-10-12T20:12:00.039Z,101742.44
2022-10-12T20:15:53.520Z,101732.75
2022-10-12T20:19:10.260Z,101732.75
2022-10-12T20:22:27.662Z,101732.47
2022-10-12T20:25:40.522Z,101728.97
2022-10-12T20:28:13.700Z,101738.78
2022-10-12T20:30:42.967Z,101729.81
2022-10-12T20:33:17.410Z,101728.97
2022-10-12T20:35:50.511Z,101735.78
2022-10-12T20:38:26.348Z,101729.81
2022-10-12T20:41:21.470Z,101730.44
2022-10-12T20:44:22.383Z,101730.28
2022-10-12T20:47:05.715Z,101727.63
2022-10-12T20:49:33.541Z,101720.34
2022-10-12T20:52:01.019Z,101722.03
2022-10-12T20:54:29.973Z,101718.66
2022-10-12T20:56:57.492Z,101704.34
2022-10-12T20:59:24.934Z,101712.34
2022-10-12T21:01:52.429Z,101704.22
2022-10-12T21:04:19.865Z,101695.34
2022-10-12T21:06:47.355Z,101701.78
2022-10-12T21:09:14.979Z,101698.00
2022-10-12T21:11:44.356Z,101700.44
2022-10-12T21:14:11.942Z,101696.06
2022-10-12T21:16:39.364Z,101691.34
2022-10-12T21:19:06.764Z,101685.88
2022-10-12T21:21:34.182Z,101681.03
2022-10-12T21:24:01.653Z,101685.25
2022-10-12T21:26:30.052Z,101688.06
2022-10-12T21:28:59.548Z,101686.13
2022-10-12T21:31:31.789Z,101686.38
2022-10-12T21:34:01.002Z,101687.94
2022-10-12T21:36:28.467Z,101684.44
2022-10-12T21:38:55.889Z,101682.00
2022-10-12T21:41:24.096Z,101677.38
2022-10-12T21:43:51.856Z,101686.38
2022-10-12T21:46:21.444Z,101679.91
2022-10-12T21:48:49.025Z,101677.66
2022-10-12T21:51:16.551Z,101688.06
2022-10-12T21:53:43.967Z,101689.16
2022-10-12T21:56:15.059Z,101683.72
2022-10-12T21:58:42.570Z,101684.91
2022-10-12T22:01:11.206Z,101690.88
2022-10-12T22:03:39.959Z,101691.84
2022-10-12T22:06:09.813Z,101693.06
2022-10-12T22:08:37.196Z,101702.41
2022-10-12T22:11:06.370Z,101693.66
2022-10-12T22:13:33.847Z,101689.41
2022-10-12T22:16:02.141Z,101684.19
2022-10-12T22:18:29.561Z,101688.69
2022-10-12T22:20:58.311Z,101685.41
2022-10-12T22:23:25.777Z,101681.03
2022-10-12T22:25:53.964Z,101678.50
2022-10-12T22:28:21.428Z,101675.00
2022-10-12T22:30:48.838Z,101674.16
2022-10-12T22:33:16.252Z,101675.81
2022-10-12T22:35:52.918Z,101670.59
2022-10-12T22:38:23.634Z,101660.09
2022-10-12T22:44:31.161Z,101668.22
2022-10-12T22:55:45.629Z,101658.50
2022-10-12T22:59:00.975Z,101648.78
2022-10-12T23:02:17.661Z,101652.31
2022-10-12T23:05:25.281Z,101654.13
2022-10-12T23:08:49.909Z,101646.13
2022-10-12T23:22:52.550Z,101650.25
2022-10-12T23:25:57.990Z,101649.53
2022-10-12T23:28:41.305Z,101641.53
2022-10-12T23:31:47.386Z,101637.88
2022-10-12T23:34:57.662Z,101643.44
2022-10-12T23:38:02.171Z,101637.28
2022-10-12T23:41:21.454Z,101639.81
2022-10-12T23:51:51.862Z,101638.84
2022-10-12T23:54:35.009Z,101636.91
2022-10-12T23:57:14.028Z,101642.38
2022-10-12T23:59:53.379Z,101643.22
